Angel Fire, New Mexico
Current Conditions -  °F | °C
As of 8:15 PM on Saturday 25 Oct 2014 (Local Time) from KAXX Reporting Station
Clear Clear  
Wind Chill: 35°   Ceiling: Unl
Heat Index: 38°   Visibility: 10mi
Dew Point: 24°   Wind: 5mph
Humidity: 56%   Direction: 150°SSE
Pressure: 30.34"   Gusts: NA
Location:  36.39°N, 105.29°W
Report Text: KAXX 260215Z AUTO 15004KT 10SM CLR 04/M04 A3034 RMK AO2 T00351045
Loading
Personal Weather Stations






























Interactive Weather Map New forecast layout! Learn more

10-Day Weather Forecast

Advertisements
Track Severe Weather on mobile